<?xml version="1.0" encoding="UTF-8" standalone="no" ?>
<gpx xmlns="http://www.topografix.com/GPX/1/1" xmlns:xsi="http://www.w3.org/2001/XMLSchema-instance" xsi:schemaLocation="http://www.topografix.com/GPX/1/1 http://www.topografix.com/GPX/1/1/gpx.xsd" version="1.1" creator="VisuGPX - https://www.visugpx.com">
  <metadata>
    <name>Le Laisonnay-Col de la Croix des Frètes</name>
    <desc><![CDATA[Carte IGN TOP25 : 3633ET
Niveau TTD.
Aller-Retour au départ de Laisonnay d'en Bas]]></desc>
  </metadata>
  <trk>
    <name><![CDATA[Le Laisonnay-Col de la Croix des Frètes]]></name>
    <extensions>
      <line xmlns="http://www.topografix.com/GPX/gpx_style/0/2">
        <color>0000FF</color>
        <width>4</width>
      </line>
    </extensions>
    <trkseg>
      <trkpt lat="45.44859" lon="6.77961">
        <ele>1568</ele>
        <time>2021-02-25T08:00:00.830Z</time>
      </trkpt>
      <trkpt lat="45.44854" lon="6.77977">
        <ele>1568</ele>
        <time>2021-02-25T08:00:19.829Z</time>
      </trkpt>
      <trkpt lat="45.44862" lon="6.78033">
        <ele>1570</ele>
        <time>2021-02-25T08:01:17.832Z</time>
      </trkpt>
      <trkpt lat="45.44859" lon="6.78051">
        <ele>1570</ele>
        <time>2021-02-25T08:01:35.870Z</time>
      </trkpt>
      <trkpt lat="45.44847" lon="6.78077">
        <ele>1570</ele>
        <time>2021-02-25T08:02:07.011Z</time>
      </trkpt>
      <trkpt lat="45.44758" lon="6.78172">
        <ele>1572</ele>
        <time>2021-02-25T08:05:00.679Z</time>
      </trkpt>
      <trkpt lat="45.4477" lon="6.78234">
        <ele>1581</ele>
        <time>2021-02-25T08:06:53.879Z</time>
      </trkpt>
      <trkpt lat="45.44766" lon="6.78255">
        <ele>1585</ele>
        <time>2021-02-25T08:07:32.589Z</time>
      </trkpt>
      <trkpt lat="45.44756" lon="6.78262">
        <ele>1588</ele>
        <time>2021-02-25T08:07:53.921Z</time>
      </trkpt>
      <trkpt lat="45.44752" lon="6.78282">
        <ele>1591</ele>
        <time>2021-02-25T08:08:19.891Z</time>
      </trkpt>
      <trkpt lat="45.44697" lon="6.78326">
        <ele>1596</ele>
        <time>2021-02-25T08:09:59.864Z</time>
      </trkpt>
      <trkpt lat="45.44684" lon="6.78341">
        <ele>1597</ele>
        <time>2021-02-25T08:10:25.595Z</time>
      </trkpt>
      <trkpt lat="45.44658" lon="6.78353">
        <ele>1599</ele>
        <time>2021-02-25T08:11:18.391Z</time>
      </trkpt>
      <trkpt lat="45.44623" lon="6.78404">
        <ele>1608</ele>
        <time>2021-02-25T08:13:29.514Z</time>
      </trkpt>
      <trkpt lat="45.44625" lon="6.7842">
        <ele>1611</ele>
        <time>2021-02-25T08:14:00.646Z</time>
      </trkpt>
      <trkpt lat="45.44618" lon="6.78478">
        <ele>1623</ele>
        <time>2021-02-25T08:15:54.432Z</time>
      </trkpt>
      <trkpt lat="45.44525" lon="6.7852">
        <ele>1645</ele>
        <time>2021-02-25T08:19:21.895Z</time>
      </trkpt>
      <trkpt lat="45.4448" lon="6.78519">
        <ele>1647</ele>
        <time>2021-02-25T08:20:26.774Z</time>
      </trkpt>
      <trkpt lat="45.44443" lon="6.78539">
        <ele>1647</ele>
        <time>2021-02-25T08:21:26.419Z</time>
      </trkpt>
      <trkpt lat="45.44376" lon="6.78562">
        <ele>1652</ele>
        <time>2021-02-25T08:23:12.824Z</time>
      </trkpt>
      <trkpt lat="45.44314" lon="6.78598">
        <ele>1656</ele>
        <time>2021-02-25T08:24:55.415Z</time>
      </trkpt>
      <trkpt lat="45.44269" lon="6.78641">
        <ele>1659</ele>
        <time>2021-02-25T08:26:23.802Z</time>
      </trkpt>
      <trkpt lat="45.44223" lon="6.78709">
        <ele>1668</ele>
        <time>2021-02-25T08:28:41.272Z</time>
      </trkpt>
      <trkpt lat="45.44153" lon="6.7879">
        <ele>1684</ele>
        <time>2021-02-25T08:31:15.107Z</time>
      </trkpt>
      <trkpt lat="45.44027" lon="6.78854">
        <ele>1692</ele>
        <time>2021-02-25T08:34:39.257Z</time>
      </trkpt>
      <trkpt lat="45.43954" lon="6.78912">
        <ele>1697</ele>
        <time>2021-02-25T08:36:44.004Z</time>
      </trkpt>
      <trkpt lat="45.43898" lon="6.78999">
        <ele>1700</ele>
        <time>2021-02-25T08:38:58.485Z</time>
      </trkpt>
      <trkpt lat="45.43866" lon="6.79062">
        <ele>1710</ele>
        <time>2021-02-25T08:41:45.443Z</time>
      </trkpt>
      <trkpt lat="45.43876" lon="6.79063">
        <ele>1713</ele>
        <time>2021-02-25T08:42:15.575Z</time>
      </trkpt>
      <trkpt lat="45.43875" lon="6.79077">
        <ele>1716</ele>
        <time>2021-02-25T08:42:46.059Z</time>
      </trkpt>
      <trkpt lat="45.43896" lon="6.79119">
        <ele>1730</ele>
        <time>2021-02-25T08:45:21.897Z</time>
      </trkpt>
      <trkpt lat="45.43908" lon="6.79161">
        <ele>1742</ele>
        <time>2021-02-25T08:47:19.370Z</time>
      </trkpt>
      <trkpt lat="45.43905" lon="6.79176">
        <ele>1746</ele>
        <time>2021-02-25T08:47:58.853Z</time>
      </trkpt>
      <trkpt lat="45.43911" lon="6.79178">
        <ele>1748</ele>
        <time>2021-02-25T08:48:22.070Z</time>
      </trkpt>
      <trkpt lat="45.43937" lon="6.79141">
        <ele>1758</ele>
        <time>2021-02-25T08:50:13.011Z</time>
      </trkpt>
      <trkpt lat="45.43936" lon="6.79173">
        <ele>1764</ele>
        <time>2021-02-25T08:51:18.352Z</time>
      </trkpt>
      <trkpt lat="45.4393" lon="6.79197">
        <ele>1768</ele>
        <time>2021-02-25T08:52:11.194Z</time>
      </trkpt>
      <trkpt lat="45.43939" lon="6.79192">
        <ele>1771</ele>
        <time>2021-02-25T08:52:40.366Z</time>
      </trkpt>
      <trkpt lat="45.43938" lon="6.79204">
        <ele>1773</ele>
        <time>2021-02-25T08:53:03.113Z</time>
      </trkpt>
      <trkpt lat="45.43943" lon="6.79207">
        <ele>1775</ele>
        <time>2021-02-25T08:53:20.224Z</time>
      </trkpt>
      <trkpt lat="45.43929" lon="6.79223">
        <ele>1779</ele>
        <time>2021-02-25T08:54:12.138Z</time>
      </trkpt>
      <trkpt lat="45.43914" lon="6.79214">
        <ele>1784</ele>
        <time>2021-02-25T08:54:57.415Z</time>
      </trkpt>
      <trkpt lat="45.43891" lon="6.79243">
        <ele>1791</ele>
        <time>2021-02-25T08:56:12.078Z</time>
      </trkpt>
      <trkpt lat="45.4387" lon="6.79248">
        <ele>1796</ele>
        <time>2021-02-25T08:57:04.621Z</time>
      </trkpt>
      <trkpt lat="45.43842" lon="6.79291">
        <ele>1804</ele>
        <time>2021-02-25T08:58:41.561Z</time>
      </trkpt>
      <trkpt lat="45.43853" lon="6.79295">
        <ele>1807</ele>
        <time>2021-02-25T08:59:09.836Z</time>
      </trkpt>
      <trkpt lat="45.43846" lon="6.79308">
        <ele>1809</ele>
        <time>2021-02-25T08:59:45.287Z</time>
      </trkpt>
      <trkpt lat="45.43833" lon="6.79316">
        <ele>1813</ele>
        <time>2021-02-25T09:00:25.537Z</time>
      </trkpt>
      <trkpt lat="45.4382" lon="6.79355">
        <ele>1822</ele>
        <time>2021-02-25T09:02:13.991Z</time>
      </trkpt>
      <trkpt lat="45.43791" lon="6.79377">
        <ele>1833</ele>
        <time>2021-02-25T09:04:10.120Z</time>
      </trkpt>
      <trkpt lat="45.43763" lon="6.79413">
        <ele>1844</ele>
        <time>2021-02-25T09:05:50.720Z</time>
      </trkpt>
      <trkpt lat="45.43766" lon="6.79433">
        <ele>1847</ele>
        <time>2021-02-25T09:06:26.199Z</time>
      </trkpt>
      <trkpt lat="45.43761" lon="6.79439">
        <ele>1848</ele>
        <time>2021-02-25T09:06:42.553Z</time>
      </trkpt>
      <trkpt lat="45.43769" lon="6.79438">
        <ele>1849</ele>
        <time>2021-02-25T09:06:59.689Z</time>
      </trkpt>
      <trkpt lat="45.43744" lon="6.79466">
        <ele>1854</ele>
        <time>2021-02-25T09:07:58.651Z</time>
      </trkpt>
      <trkpt lat="45.43737" lon="6.79486">
        <ele>1855</ele>
        <time>2021-02-25T09:08:26.788Z</time>
      </trkpt>
      <trkpt lat="45.43732" lon="6.7949">
        <ele>1856</ele>
        <time>2021-02-25T09:08:37.410Z</time>
      </trkpt>
      <trkpt lat="45.43719" lon="6.79535">
        <ele>1860</ele>
        <time>2021-02-25T09:09:38.218Z</time>
      </trkpt>
      <trkpt lat="45.43696" lon="6.79585">
        <ele>1865</ele>
        <time>2021-02-25T09:10:48.463Z</time>
      </trkpt>
      <trkpt lat="45.43692" lon="6.79608">
        <ele>1867</ele>
        <time>2021-02-25T09:11:13.371Z</time>
      </trkpt>
      <trkpt lat="45.43673" lon="6.79613">
        <ele>1868</ele>
        <time>2021-02-25T09:11:41.662Z</time>
      </trkpt>
      <trkpt lat="45.43556" lon="6.79789">
        <ele>1873</ele>
        <time>2021-02-25T09:15:57.055Z</time>
      </trkpt>
      <trkpt lat="45.43548" lon="6.79816">
        <ele>1875</ele>
        <time>2021-02-25T09:16:27.444Z</time>
      </trkpt>
      <trkpt lat="45.4353" lon="6.79842">
        <ele>1878</ele>
        <time>2021-02-25T09:17:08.496Z</time>
      </trkpt>
      <trkpt lat="45.43522" lon="6.79865">
        <ele>1880</ele>
        <time>2021-02-25T09:17:36.563Z</time>
      </trkpt>
      <trkpt lat="45.4353" lon="6.7996">
        <ele>1884</ele>
        <time>2021-02-25T09:19:14.648Z</time>
      </trkpt>
      <trkpt lat="45.43508" lon="6.8">
        <ele>1883</ele>
        <time>2021-02-25T09:20:03.708Z</time>
      </trkpt>
      <trkpt lat="45.43477" lon="6.80093">
        <ele>1884</ele>
        <time>2021-02-25T09:21:52.851Z</time>
      </trkpt>
      <trkpt lat="45.43475" lon="6.80115">
        <ele>1886</ele>
        <time>2021-02-25T09:22:16.869Z</time>
      </trkpt>
      <trkpt lat="45.43466" lon="6.80129">
        <ele>1888</ele>
        <time>2021-02-25T09:22:44.026Z</time>
      </trkpt>
      <trkpt lat="45.43472" lon="6.80149">
        <ele>1890</ele>
        <time>2021-02-25T09:23:16.845Z</time>
      </trkpt>
      <trkpt lat="45.43459" lon="6.80189">
        <ele>1896</ele>
        <time>2021-02-25T09:24:18.989Z</time>
      </trkpt>
      <trkpt lat="45.43444" lon="6.80265">
        <ele>1903</ele>
        <time>2021-02-25T09:25:55.742Z</time>
      </trkpt>
      <trkpt lat="45.43418" lon="6.80291">
        <ele>1906</ele>
        <time>2021-02-25T09:26:46.711Z</time>
      </trkpt>
      <trkpt lat="45.43385" lon="6.80371">
        <ele>1911</ele>
        <time>2021-02-25T09:28:30.917Z</time>
      </trkpt>
      <trkpt lat="45.43379" lon="6.80463">
        <ele>1918</ele>
        <time>2021-02-25T09:30:22.290Z</time>
      </trkpt>
      <trkpt lat="45.43393" lon="6.80497">
        <ele>1921</ele>
        <time>2021-02-25T09:31:14.068Z</time>
      </trkpt>
      <trkpt lat="45.43365" lon="6.80589">
        <ele>1931</ele>
        <time>2021-02-25T09:33:23.548Z</time>
      </trkpt>
      <trkpt lat="45.43368" lon="6.80612">
        <ele>1933</ele>
        <time>2021-02-25T09:33:52.947Z</time>
      </trkpt>
      <trkpt lat="45.43361" lon="6.80644">
        <ele>1935</ele>
        <time>2021-02-25T09:34:32.521Z</time>
      </trkpt>
      <trkpt lat="45.43354" lon="6.80706">
        <ele>1940</ele>
        <time>2021-02-25T09:35:50.038Z</time>
      </trkpt>
      <trkpt lat="45.43336" lon="6.8073">
        <ele>1943</ele>
        <time>2021-02-25T09:36:39.682Z</time>
      </trkpt>
      <trkpt lat="45.43316" lon="6.80776">
        <ele>1949</ele>
        <time>2021-02-25T09:38:07.148Z</time>
      </trkpt>
      <trkpt lat="45.43297" lon="6.80909">
        <ele>1969</ele>
        <time>2021-02-25T09:41:52.582Z</time>
      </trkpt>
      <trkpt lat="45.43283" lon="6.80924">
        <ele>1972</ele>
        <time>2021-02-25T09:42:31.142Z</time>
      </trkpt>
      <trkpt lat="45.43272" lon="6.8095">
        <ele>1976</ele>
        <time>2021-02-25T09:43:12.493Z</time>
      </trkpt>
      <trkpt lat="45.43252" lon="6.8098">
        <ele>1979</ele>
        <time>2021-02-25T09:43:59.826Z</time>
      </trkpt>
      <trkpt lat="45.43246" lon="6.81005">
        <ele>1981</ele>
        <time>2021-02-25T09:44:29.582Z</time>
      </trkpt>
      <trkpt lat="45.43218" lon="6.81072">
        <ele>1985</ele>
        <time>2021-02-25T09:45:56.832Z</time>
      </trkpt>
      <trkpt lat="45.4322" lon="6.81086">
        <ele>1986</ele>
        <time>2021-02-25T09:46:11.762Z</time>
      </trkpt>
      <trkpt lat="45.432" lon="6.81153">
        <ele>1990</ele>
        <time>2021-02-25T09:47:35.289Z</time>
      </trkpt>
      <trkpt lat="45.43194" lon="6.81212">
        <ele>1995</ele>
        <time>2021-02-25T09:48:59.635Z</time>
      </trkpt>
      <trkpt lat="45.43204" lon="6.81302">
        <ele>2006</ele>
        <time>2021-02-25T09:51:37.583Z</time>
      </trkpt>
      <trkpt lat="45.43224" lon="6.81383">
        <ele>2022</ele>
        <time>2021-02-25T09:54:56.398Z</time>
      </trkpt>
      <trkpt lat="45.43249" lon="6.8143">
        <ele>2036</ele>
        <time>2021-02-25T09:57:46.327Z</time>
      </trkpt>
      <trkpt lat="45.43306" lon="6.81469">
        <ele>2060</ele>
        <time>2021-02-25T10:02:08.514Z</time>
      </trkpt>
      <trkpt lat="45.43346" lon="6.81491">
        <ele>2075</ele>
        <time>2021-02-25T10:04:40.428Z</time>
      </trkpt>
      <trkpt lat="45.43382" lon="6.81483">
        <ele>2085</ele>
        <time>2021-02-25T10:06:19.034Z</time>
      </trkpt>
      <trkpt lat="45.43443" lon="6.81441">
        <ele>2100</ele>
        <time>2021-02-25T10:08:48.663Z</time>
      </trkpt>
      <trkpt lat="45.43447" lon="6.81416">
        <ele>2103</ele>
        <time>2021-02-25T10:09:29.065Z</time>
      </trkpt>
      <trkpt lat="45.43453" lon="6.8135">
        <ele>2109</ele>
        <time>2021-02-25T10:10:52.373Z</time>
      </trkpt>
      <trkpt lat="45.4345" lon="6.81343">
        <ele>2110</ele>
        <time>2021-02-25T10:11:03.299Z</time>
      </trkpt>
      <trkpt lat="45.43455" lon="6.81263">
        <ele>2116</ele>
        <time>2021-02-25T10:12:41.659Z</time>
      </trkpt>
      <trkpt lat="45.4344" lon="6.81172">
        <ele>2124</ele>
        <time>2021-02-25T10:14:39.762Z</time>
      </trkpt>
      <trkpt lat="45.43451" lon="6.81114">
        <ele>2129</ele>
        <time>2021-02-25T10:15:57.182Z</time>
      </trkpt>
      <trkpt lat="45.4345" lon="6.81063">
        <ele>2134</ele>
        <time>2021-02-25T10:17:06.850Z</time>
      </trkpt>
      <trkpt lat="45.43458" lon="6.81036">
        <ele>2137</ele>
        <time>2021-02-25T10:17:44.676Z</time>
      </trkpt>
      <trkpt lat="45.43477" lon="6.81021">
        <ele>2140</ele>
        <time>2021-02-25T10:18:25.682Z</time>
      </trkpt>
      <trkpt lat="45.43506" lon="6.81024">
        <ele>2143</ele>
        <time>2021-02-25T10:19:20.490Z</time>
      </trkpt>
      <trkpt lat="45.43531" lon="6.81047">
        <ele>2148</ele>
        <time>2021-02-25T10:20:29.854Z</time>
      </trkpt>
      <trkpt lat="45.43557" lon="6.811">
        <ele>2158</ele>
        <time>2021-02-25T10:22:44.074Z</time>
      </trkpt>
      <trkpt lat="45.43588" lon="6.81164">
        <ele>2174</ele>
        <time>2021-02-25T10:25:51.962Z</time>
      </trkpt>
      <trkpt lat="45.43602" lon="6.81227">
        <ele>2189</ele>
        <time>2021-02-25T10:28:23.044Z</time>
      </trkpt>
      <trkpt lat="45.43605" lon="6.81289">
        <ele>2200</ele>
        <time>2021-02-25T10:29:47.852Z</time>
      </trkpt>
      <trkpt lat="45.43588" lon="6.81305">
        <ele>2202</ele>
        <time>2021-02-25T10:30:28.390Z</time>
      </trkpt>
      <trkpt lat="45.43584" lon="6.81342">
        <ele>2202</ele>
        <time>2021-02-25T10:31:04.753Z</time>
      </trkpt>
      <trkpt lat="45.43608" lon="6.81373">
        <ele>2201</ele>
        <time>2021-02-25T10:31:49.536Z</time>
      </trkpt>
      <trkpt lat="45.43629" lon="6.81428">
        <ele>2202</ele>
        <time>2021-02-25T10:33:05.940Z</time>
      </trkpt>
      <trkpt lat="45.43628" lon="6.81445">
        <ele>2204</ele>
        <time>2021-02-25T10:33:27.169Z</time>
      </trkpt>
      <trkpt lat="45.43645" lon="6.81496">
        <ele>2212</ele>
        <time>2021-02-25T10:35:02.326Z</time>
      </trkpt>
      <trkpt lat="45.43651" lon="6.81557">
        <ele>2221</ele>
        <time>2021-02-25T10:36:41.013Z</time>
      </trkpt>
      <trkpt lat="45.43679" lon="6.8159">
        <ele>2227</ele>
        <time>2021-02-25T10:37:54.308Z</time>
      </trkpt>
      <trkpt lat="45.43696" lon="6.81632">
        <ele>2232</ele>
        <time>2021-02-25T10:38:55.388Z</time>
      </trkpt>
      <trkpt lat="45.43725" lon="6.81657">
        <ele>2235</ele>
        <time>2021-02-25T10:39:49.633Z</time>
      </trkpt>
      <trkpt lat="45.43729" lon="6.81666">
        <ele>2236</ele>
        <time>2021-02-25T10:40:01.677Z</time>
      </trkpt>
      <trkpt lat="45.43726" lon="6.81704">
        <ele>2238</ele>
        <time>2021-02-25T10:40:43.949Z</time>
      </trkpt>
      <trkpt lat="45.43729" lon="6.8172">
        <ele>2238</ele>
        <time>2021-02-25T10:41:02.473Z</time>
      </trkpt>
      <trkpt lat="45.43791" lon="6.81772">
        <ele>2244</ele>
        <time>2021-02-25T10:42:57.290Z</time>
      </trkpt>
      <trkpt lat="45.43839" lon="6.81841">
        <ele>2250</ele>
        <time>2021-02-25T10:44:47.057Z</time>
      </trkpt>
      <trkpt lat="45.4385" lon="6.81849">
        <ele>2251</ele>
        <time>2021-02-25T10:45:06.738Z</time>
      </trkpt>
      <trkpt lat="45.43888" lon="6.81861">
        <ele>2255</ele>
        <time>2021-02-25T10:46:07.871Z</time>
      </trkpt>
      <trkpt lat="45.43908" lon="6.81947">
        <ele>2259</ele>
        <time>2021-02-25T10:47:46.364Z</time>
      </trkpt>
      <trkpt lat="45.43922" lon="6.8198">
        <ele>2261</ele>
        <time>2021-02-25T10:48:30.339Z</time>
      </trkpt>
      <trkpt lat="45.43934" lon="6.82056">
        <ele>2266</ele>
        <time>2021-02-25T10:50:06.418Z</time>
      </trkpt>
      <trkpt lat="45.43957" lon="6.82104">
        <ele>2272</ele>
        <time>2021-02-25T10:51:26.314Z</time>
      </trkpt>
      <trkpt lat="45.43982" lon="6.82138">
        <ele>2277</ele>
        <time>2021-02-25T10:52:26.394Z</time>
      </trkpt>
      <trkpt lat="45.43985" lon="6.82153">
        <ele>2278</ele>
        <time>2021-02-25T10:52:45.557Z</time>
      </trkpt>
      <trkpt lat="45.43981" lon="6.82189">
        <ele>2280</ele>
        <time>2021-02-25T10:53:25.687Z</time>
      </trkpt>
      <trkpt lat="45.44051" lon="6.82375">
        <ele>2290</ele>
        <time>2021-02-25T10:57:14.422Z</time>
      </trkpt>
      <trkpt lat="45.44067" lon="6.82468">
        <ele>2294</ele>
        <time>2021-02-25T10:58:57.188Z</time>
      </trkpt>
      <trkpt lat="45.44072" lon="6.82539">
        <ele>2297</ele>
        <time>2021-02-25T11:00:13.440Z</time>
      </trkpt>
      <trkpt lat="45.44091" lon="6.82599">
        <ele>2299</ele>
        <time>2021-02-25T11:01:25.454Z</time>
      </trkpt>
      <trkpt lat="45.44122" lon="6.82779">
        <ele>2309</ele>
        <time>2021-02-25T11:04:49.499Z</time>
      </trkpt>
      <trkpt lat="45.44121" lon="6.82825">
        <ele>2311</ele>
        <time>2021-02-25T11:05:36.454Z</time>
      </trkpt>
      <trkpt lat="45.44129" lon="6.82861">
        <ele>2311</ele>
        <time>2021-02-25T11:06:14.977Z</time>
      </trkpt>
      <trkpt lat="45.44176" lon="6.82963">
        <ele>2313</ele>
        <time>2021-02-25T11:08:24.342Z</time>
      </trkpt>
      <trkpt lat="45.44184" lon="6.83041">
        <ele>2318</ele>
        <time>2021-02-25T11:09:50.871Z</time>
      </trkpt>
      <trkpt lat="45.44175" lon="6.83143">
        <ele>2323</ele>
        <time>2021-02-25T11:11:40.038Z</time>
      </trkpt>
      <trkpt lat="45.44185" lon="6.83205">
        <ele>2324</ele>
        <time>2021-02-25T11:12:44.288Z</time>
      </trkpt>
      <trkpt lat="45.44218" lon="6.83288">
        <ele>2325</ele>
        <time>2021-02-25T11:14:20.084Z</time>
      </trkpt>
      <trkpt lat="45.44219" lon="6.83323">
        <ele>2326</ele>
        <time>2021-02-25T11:14:56.880Z</time>
      </trkpt>
      <trkpt lat="45.44242" lon="6.83418">
        <ele>2328</ele>
        <time>2021-02-25T11:16:40.124Z</time>
      </trkpt>
      <trkpt lat="45.44256" lon="6.83469">
        <ele>2330</ele>
        <time>2021-02-25T11:17:39.761Z</time>
      </trkpt>
      <trkpt lat="45.4428" lon="6.83496">
        <ele>2332</ele>
        <time>2021-02-25T11:18:27.143Z</time>
      </trkpt>
      <trkpt lat="45.44308" lon="6.83599">
        <ele>2338</ele>
        <time>2021-02-25T11:20:45.113Z</time>
      </trkpt>
      <trkpt lat="45.44329" lon="6.83676">
        <ele>2348</ele>
        <time>2021-02-25T11:23:12.494Z</time>
      </trkpt>
      <trkpt lat="45.44342" lon="6.83774">
        <ele>2367</ele>
        <time>2021-02-25T11:26:15.667Z</time>
      </trkpt>
      <trkpt lat="45.44379" lon="6.83839">
        <ele>2378</ele>
        <time>2021-02-25T11:28:20.160Z</time>
      </trkpt>
      <trkpt lat="45.44482" lon="6.83999">
        <ele>2402</ele>
        <time>2021-02-25T11:32:53.992Z</time>
      </trkpt>
      <trkpt lat="45.44508" lon="6.84142">
        <ele>2409</ele>
        <time>2021-02-25T11:35:35.453Z</time>
      </trkpt>
      <trkpt lat="45.44511" lon="6.84279">
        <ele>2416</ele>
        <time>2021-02-25T11:38:11.857Z</time>
      </trkpt>
      <trkpt lat="45.44468" lon="6.84364">
        <ele>2425</ele>
        <time>2021-02-25T11:41:24.888Z</time>
      </trkpt>
      <trkpt lat="45.44452" lon="6.8449">
        <ele>2454</ele>
        <time>2021-02-25T11:45:31.962Z</time>
      </trkpt>
      <trkpt lat="45.44486" lon="6.84608">
        <ele>2469</ele>
        <time>2021-02-25T11:48:26.758Z</time>
      </trkpt>
      <trkpt lat="45.44549" lon="6.84706">
        <ele>2480</ele>
        <time>2021-02-25T11:51:07.417Z</time>
      </trkpt>
      <trkpt lat="45.44639" lon="6.84811">
        <ele>2492</ele>
        <time>2021-02-25T11:53:48.446Z</time>
      </trkpt>
      <trkpt lat="45.44737" lon="6.84934">
        <ele>2481</ele>
        <time>2021-02-25T11:56:48.917Z</time>
      </trkpt>
      <trkpt lat="45.44804" lon="6.8503">
        <ele>2489</ele>
        <time>2021-02-25T11:59:20.509Z</time>
      </trkpt>
      <trkpt lat="45.44873" lon="6.85168">
        <ele>2499</ele>
        <time>2021-02-25T12:03:14.435Z</time>
      </trkpt>
      <trkpt lat="45.45084" lon="6.85482">
        <ele>2551</ele>
        <time>2021-02-25T12:15:03.397Z</time>
      </trkpt>
      <trkpt lat="45.45169" lon="6.85575">
        <ele>2580</ele>
        <time>2021-02-25T12:21:17.320Z</time>
      </trkpt>
      <trkpt lat="45.4523" lon="6.8564">
        <ele>2608</ele>
        <time>2021-02-25T12:25:11.217Z</time>
      </trkpt>
      <trkpt lat="45.45286" lon="6.85746">
        <ele>2626</ele>
        <time>2021-02-25T12:28:46.318Z</time>
      </trkpt>
      <trkpt lat="45.45335" lon="6.85808">
        <ele>2639</ele>
        <time>2021-02-25T12:31:01.019Z</time>
      </trkpt>
      <trkpt lat="45.45415" lon="6.85828">
        <ele>2649</ele>
        <time>2021-02-25T12:32:52.337Z</time>
      </trkpt>
      <trkpt lat="45.45335" lon="6.85812">
        <ele>2639</ele>
        <time>2021-02-25T12:34:58.036Z</time>
      </trkpt>
      <trkpt lat="45.45284" lon="6.85746">
        <ele>2627</ele>
        <time>2021-02-25T12:37:02.752Z</time>
      </trkpt>
      <trkpt lat="45.45229" lon="6.85634">
        <ele>2606</ele>
        <time>2021-02-25T12:40:35.108Z</time>
      </trkpt>
      <trkpt lat="45.45165" lon="6.85577">
        <ele>2580</ele>
        <time>2021-02-25T12:43:38.385Z</time>
      </trkpt>
      <trkpt lat="45.45084" lon="6.85486">
        <ele>2552</ele>
        <time>2021-02-25T12:46:45.045Z</time>
      </trkpt>
      <trkpt lat="45.44878" lon="6.8518">
        <ele>2500</ele>
        <time>2021-02-25T12:54:26.752Z</time>
      </trkpt>
      <trkpt lat="45.44783" lon="6.84995">
        <ele>2486</ele>
        <time>2021-02-25T12:58:08.703Z</time>
      </trkpt>
      <trkpt lat="45.44698" lon="6.84889">
        <ele>2486</ele>
        <time>2021-02-25T13:00:44.430Z</time>
      </trkpt>
      <trkpt lat="45.44583" lon="6.84756">
        <ele>2483</ele>
        <time>2021-02-25T13:04:11.997Z</time>
      </trkpt>
      <trkpt lat="45.44487" lon="6.84613">
        <ele>2468</ele>
        <time>2021-02-25T13:07:41.928Z</time>
      </trkpt>
      <trkpt lat="45.44453" lon="6.8449">
        <ele>2454</ele>
        <time>2021-02-25T13:10:47.512Z</time>
      </trkpt>
      <trkpt lat="45.44469" lon="6.84363">
        <ele>2425</ele>
        <time>2021-02-25T13:13:48.012Z</time>
      </trkpt>
      <trkpt lat="45.44512" lon="6.84281">
        <ele>2416</ele>
        <time>2021-02-25T13:15:32.890Z</time>
      </trkpt>
      <trkpt lat="45.44512" lon="6.84151">
        <ele>2410</ele>
        <time>2021-02-25T13:17:42.049Z</time>
      </trkpt>
      <trkpt lat="45.44483" lon="6.83996">
        <ele>2402</ele>
        <time>2021-02-25T13:20:31.846Z</time>
      </trkpt>
      <trkpt lat="45.44379" lon="6.83837">
        <ele>2378</ele>
        <time>2021-02-25T13:24:42.490Z</time>
      </trkpt>
      <trkpt lat="45.44343" lon="6.8377">
        <ele>2367</ele>
        <time>2021-02-25T13:26:43.168Z</time>
      </trkpt>
      <trkpt lat="45.44328" lon="6.83674">
        <ele>2347</ele>
        <time>2021-02-25T13:28:39.735Z</time>
      </trkpt>
      <trkpt lat="45.44282" lon="6.83497">
        <ele>2332</ele>
        <time>2021-02-25T13:31:54.892Z</time>
      </trkpt>
      <trkpt lat="45.44256" lon="6.83469">
        <ele>2330</ele>
        <time>2021-02-25T13:32:39.339Z</time>
      </trkpt>
      <trkpt lat="45.44242" lon="6.83418">
        <ele>2328</ele>
        <time>2021-02-25T13:33:33.289Z</time>
      </trkpt>
      <trkpt lat="45.44219" lon="6.83323">
        <ele>2326</ele>
        <time>2021-02-25T13:35:10.057Z</time>
      </trkpt>
      <trkpt lat="45.44218" lon="6.83288">
        <ele>2325</ele>
        <time>2021-02-25T13:35:44.852Z</time>
      </trkpt>
      <trkpt lat="45.44185" lon="6.83205">
        <ele>2324</ele>
        <time>2021-02-25T13:37:16.987Z</time>
      </trkpt>
      <trkpt lat="45.44175" lon="6.83143">
        <ele>2323</ele>
        <time>2021-02-25T13:38:19.205Z</time>
      </trkpt>
      <trkpt lat="45.44184" lon="6.83041">
        <ele>2318</ele>
        <time>2021-02-25T13:40:02.213Z</time>
      </trkpt>
      <trkpt lat="45.44176" lon="6.82963">
        <ele>2313</ele>
        <time>2021-02-25T13:41:17.871Z</time>
      </trkpt>
      <trkpt lat="45.44129" lon="6.82861">
        <ele>2312</ele>
        <time>2021-02-25T13:43:16.460Z</time>
      </trkpt>
      <trkpt lat="45.44121" lon="6.82825">
        <ele>2311</ele>
        <time>2021-02-25T13:43:53.776Z</time>
      </trkpt>
      <trkpt lat="45.44122" lon="6.82779">
        <ele>2309</ele>
        <time>2021-02-25T13:44:39.112Z</time>
      </trkpt>
      <trkpt lat="45.44091" lon="6.82599">
        <ele>2299</ele>
        <time>2021-02-25T13:47:41.920Z</time>
      </trkpt>
      <trkpt lat="45.44072" lon="6.82539">
        <ele>2297</ele>
        <time>2021-02-25T13:48:45.984Z</time>
      </trkpt>
      <trkpt lat="45.44067" lon="6.82468">
        <ele>2294</ele>
        <time>2021-02-25T13:49:56.042Z</time>
      </trkpt>
      <trkpt lat="45.44051" lon="6.82375">
        <ele>2290</ele>
        <time>2021-02-25T13:51:29.343Z</time>
      </trkpt>
      <trkpt lat="45.43981" lon="6.82189">
        <ele>2281</ele>
        <time>2021-02-25T13:54:57.551Z</time>
      </trkpt>
      <trkpt lat="45.43985" lon="6.82153">
        <ele>2278</ele>
        <time>2021-02-25T13:55:36.623Z</time>
      </trkpt>
      <trkpt lat="45.43982" lon="6.82138">
        <ele>2276</ele>
        <time>2021-02-25T13:55:53.373Z</time>
      </trkpt>
      <trkpt lat="45.43957" lon="6.82104">
        <ele>2272</ele>
        <time>2021-02-25T13:56:45.487Z</time>
      </trkpt>
      <trkpt lat="45.43934" lon="6.82056">
        <ele>2267</ele>
        <time>2021-02-25T13:57:46.038Z</time>
      </trkpt>
      <trkpt lat="45.43922" lon="6.8198">
        <ele>2261</ele>
        <time>2021-02-25T13:59:05.801Z</time>
      </trkpt>
      <trkpt lat="45.43908" lon="6.81947">
        <ele>2259</ele>
        <time>2021-02-25T13:59:44.961Z</time>
      </trkpt>
      <trkpt lat="45.43888" lon="6.81861">
        <ele>2254</ele>
        <time>2021-02-25T14:01:15.610Z</time>
      </trkpt>
      <trkpt lat="45.4385" lon="6.81849">
        <ele>2251</ele>
        <time>2021-02-25T14:02:11.203Z</time>
      </trkpt>
      <trkpt lat="45.43839" lon="6.81841">
        <ele>2250</ele>
        <time>2021-02-25T14:02:28.698Z</time>
      </trkpt>
      <trkpt lat="45.43791" lon="6.81772">
        <ele>2244</ele>
        <time>2021-02-25T14:04:05.574Z</time>
      </trkpt>
      <trkpt lat="45.43729" lon="6.8172">
        <ele>2239</ele>
        <time>2021-02-25T14:05:47.104Z</time>
      </trkpt>
      <trkpt lat="45.43726" lon="6.81704">
        <ele>2238</ele>
        <time>2021-02-25T14:06:03.843Z</time>
      </trkpt>
      <trkpt lat="45.43729" lon="6.81666">
        <ele>2236</ele>
        <time>2021-02-25T14:06:42.835Z</time>
      </trkpt>
      <trkpt lat="45.43725" lon="6.81657">
        <ele>2235</ele>
        <time>2021-02-25T14:06:53.674Z</time>
      </trkpt>
      <trkpt lat="45.43696" lon="6.81632">
        <ele>2232</ele>
        <time>2021-02-25T14:07:44.370Z</time>
      </trkpt>
      <trkpt lat="45.43679" lon="6.8159">
        <ele>2227</ele>
        <time>2021-02-25T14:08:39.544Z</time>
      </trkpt>
      <trkpt lat="45.43651" lon="6.81557">
        <ele>2221</ele>
        <time>2021-02-25T14:09:45.292Z</time>
      </trkpt>
      <trkpt lat="45.43645" lon="6.81496">
        <ele>2211</ele>
        <time>2021-02-25T14:11:05.288Z</time>
      </trkpt>
      <trkpt lat="45.43628" lon="6.81445">
        <ele>2204</ele>
        <time>2021-02-25T14:12:03.682Z</time>
      </trkpt>
      <trkpt lat="45.43629" lon="6.81428">
        <ele>2203</ele>
        <time>2021-02-25T14:12:21.289Z</time>
      </trkpt>
      <trkpt lat="45.43608" lon="6.81373">
        <ele>2202</ele>
        <time>2021-02-25T14:13:21.497Z</time>
      </trkpt>
      <trkpt lat="45.43584" lon="6.81342">
        <ele>2202</ele>
        <time>2021-02-25T14:14:06.280Z</time>
      </trkpt>
      <trkpt lat="45.43588" lon="6.81305">
        <ele>2200</ele>
        <time>2021-02-25T14:14:47.040Z</time>
      </trkpt>
      <trkpt lat="45.43604" lon="6.8129">
        <ele>2198</ele>
        <time>2021-02-25T14:15:17.387Z</time>
      </trkpt>
      <trkpt lat="45.43605" lon="6.81226">
        <ele>2189</ele>
        <time>2021-02-25T14:16:50.894Z</time>
      </trkpt>
      <trkpt lat="45.4359" lon="6.8117">
        <ele>2176</ele>
        <time>2021-02-25T14:18:36.703Z</time>
      </trkpt>
      <trkpt lat="45.43576" lon="6.81141">
        <ele>2168</ele>
        <time>2021-02-25T14:19:35.057Z</time>
      </trkpt>
      <trkpt lat="45.43534" lon="6.81061">
        <ele>2148</ele>
        <time>2021-02-25T14:21:54.707Z</time>
      </trkpt>
      <trkpt lat="45.43506" lon="6.81024">
        <ele>2143</ele>
        <time>2021-02-25T14:22:51.401Z</time>
      </trkpt>
      <trkpt lat="45.43477" lon="6.81021">
        <ele>2140</ele>
        <time>2021-02-25T14:23:34.165Z</time>
      </trkpt>
      <trkpt lat="45.43458" lon="6.81036">
        <ele>2138</ele>
        <time>2021-02-25T14:24:08.267Z</time>
      </trkpt>
      <trkpt lat="45.4345" lon="6.81063">
        <ele>2135</ele>
        <time>2021-02-25T14:24:39.601Z</time>
      </trkpt>
      <trkpt lat="45.43451" lon="6.81114">
        <ele>2129</ele>
        <time>2021-02-25T14:25:36.948Z</time>
      </trkpt>
      <trkpt lat="45.4344" lon="6.81172">
        <ele>2123</ele>
        <time>2021-02-25T14:26:40.094Z</time>
      </trkpt>
      <trkpt lat="45.43455" lon="6.81263">
        <ele>2116</ele>
        <time>2021-02-25T14:28:18.448Z</time>
      </trkpt>
      <trkpt lat="45.4345" lon="6.81343">
        <ele>2109</ele>
        <time>2021-02-25T14:29:44.608Z</time>
      </trkpt>
      <trkpt lat="45.43453" lon="6.81353">
        <ele>2108</ele>
        <time>2021-02-25T14:29:56.684Z</time>
      </trkpt>
      <trkpt lat="45.43446" lon="6.81406">
        <ele>2102</ele>
        <time>2021-02-25T14:30:59.232Z</time>
      </trkpt>
      <trkpt lat="45.43449" lon="6.81433">
        <ele>2100</ele>
        <time>2021-02-25T14:31:31.036Z</time>
      </trkpt>
      <trkpt lat="45.43381" lon="6.81483">
        <ele>2086</ele>
        <time>2021-02-25T14:33:55.547Z</time>
      </trkpt>
      <trkpt lat="45.4335" lon="6.81491">
        <ele>2077</ele>
        <time>2021-02-25T14:35:23.577Z</time>
      </trkpt>
      <trkpt lat="45.43306" lon="6.81472">
        <ele>2059</ele>
        <time>2021-02-25T14:37:47.166Z</time>
      </trkpt>
      <trkpt lat="45.43251" lon="6.81433">
        <ele>2035</ele>
        <time>2021-02-25T14:40:37.416Z</time>
      </trkpt>
      <trkpt lat="45.43228" lon="6.81383">
        <ele>2023</ele>
        <time>2021-02-25T14:42:08.575Z</time>
      </trkpt>
      <trkpt lat="45.43205" lon="6.81304">
        <ele>2008</ele>
        <time>2021-02-25T14:44:10.672Z</time>
      </trkpt>
      <trkpt lat="45.43192" lon="6.81214">
        <ele>1993</ele>
        <time>2021-02-25T14:46:00.375Z</time>
      </trkpt>
      <trkpt lat="45.43198" lon="6.81153">
        <ele>1989</ele>
        <time>2021-02-25T14:47:01.815Z</time>
      </trkpt>
      <trkpt lat="45.4322" lon="6.81086">
        <ele>1986</ele>
        <time>2021-02-25T14:48:14.834Z</time>
      </trkpt>
      <trkpt lat="45.43218" lon="6.81072">
        <ele>1986</ele>
        <time>2021-02-25T14:48:28.147Z</time>
      </trkpt>
      <trkpt lat="45.43246" lon="6.81005">
        <ele>1981</ele>
        <time>2021-02-25T14:49:49.907Z</time>
      </trkpt>
      <trkpt lat="45.43252" lon="6.8098">
        <ele>1979</ele>
        <time>2021-02-25T14:50:17.373Z</time>
      </trkpt>
      <trkpt lat="45.43272" lon="6.8095">
        <ele>1975</ele>
        <time>2021-02-25T14:51:03.388Z</time>
      </trkpt>
      <trkpt lat="45.43283" lon="6.80924">
        <ele>1972</ele>
        <time>2021-02-25T14:51:39.023Z</time>
      </trkpt>
      <trkpt lat="45.43297" lon="6.80909">
        <ele>1969</ele>
        <time>2021-02-25T14:52:09.345Z</time>
      </trkpt>
      <trkpt lat="45.43316" lon="6.80776">
        <ele>1950</ele>
        <time>2021-02-25T14:55:00.961Z</time>
      </trkpt>
      <trkpt lat="45.43336" lon="6.8073">
        <ele>1943</ele>
        <time>2021-02-25T14:56:01.705Z</time>
      </trkpt>
      <trkpt lat="45.43354" lon="6.80706">
        <ele>1940</ele>
        <time>2021-02-25T14:56:39.862Z</time>
      </trkpt>
      <trkpt lat="45.43361" lon="6.80644">
        <ele>1935</ele>
        <time>2021-02-25T14:57:46.195Z</time>
      </trkpt>
      <trkpt lat="45.43368" lon="6.80612">
        <ele>1932</ele>
        <time>2021-02-25T14:58:21.706Z</time>
      </trkpt>
      <trkpt lat="45.43365" lon="6.80589">
        <ele>1931</ele>
        <time>2021-02-25T14:58:45.672Z</time>
      </trkpt>
      <trkpt lat="45.43393" lon="6.80497">
        <ele>1922</ele>
        <time>2021-02-25T15:00:33.169Z</time>
      </trkpt>
      <trkpt lat="45.43379" lon="6.80463">
        <ele>1918</ele>
        <time>2021-02-25T15:01:14.527Z</time>
      </trkpt>
      <trkpt lat="45.43385" lon="6.80371">
        <ele>1911</ele>
        <time>2021-02-25T15:02:49.423Z</time>
      </trkpt>
      <trkpt lat="45.43418" lon="6.80291">
        <ele>1906</ele>
        <time>2021-02-25T15:04:20.658Z</time>
      </trkpt>
      <trkpt lat="45.43444" lon="6.80265">
        <ele>1904</ele>
        <time>2021-02-25T15:05:08.517Z</time>
      </trkpt>
      <trkpt lat="45.43459" lon="6.80189">
        <ele>1896</ele>
        <time>2021-02-25T15:06:38.506Z</time>
      </trkpt>
      <trkpt lat="45.43472" lon="6.80149">
        <ele>1890</ele>
        <time>2021-02-25T15:07:32.568Z</time>
      </trkpt>
      <trkpt lat="45.43466" lon="6.80129">
        <ele>1887</ele>
        <time>2021-02-25T15:07:57.535Z</time>
      </trkpt>
      <trkpt lat="45.43475" lon="6.80115">
        <ele>1885</ele>
        <time>2021-02-25T15:08:15.824Z</time>
      </trkpt>
      <trkpt lat="45.43477" lon="6.80093">
        <ele>1884</ele>
        <time>2021-02-25T15:08:37.473Z</time>
      </trkpt>
      <trkpt lat="45.43508" lon="6.8">
        <ele>1883</ele>
        <time>2021-02-25T15:10:17.597Z</time>
      </trkpt>
      <trkpt lat="45.4353" lon="6.7996">
        <ele>1884</ele>
        <time>2021-02-25T15:11:06.657Z</time>
      </trkpt>
      <trkpt lat="45.43522" lon="6.79865">
        <ele>1880</ele>
        <time>2021-02-25T15:12:43.040Z</time>
      </trkpt>
      <trkpt lat="45.4353" lon="6.79842">
        <ele>1878</ele>
        <time>2021-02-25T15:13:08.343Z</time>
      </trkpt>
      <trkpt lat="45.43548" lon="6.79816">
        <ele>1875</ele>
        <time>2021-02-25T15:13:44.103Z</time>
      </trkpt>
      <trkpt lat="45.43556" lon="6.79789">
        <ele>1873</ele>
        <time>2021-02-25T15:14:12.131Z</time>
      </trkpt>
      <trkpt lat="45.43673" lon="6.79613">
        <ele>1869</ele>
        <time>2021-02-25T15:18:07.682Z</time>
      </trkpt>
      <trkpt lat="45.43692" lon="6.79608">
        <ele>1867</ele>
        <time>2021-02-25T15:18:34.130Z</time>
      </trkpt>
      <trkpt lat="45.43696" lon="6.79585">
        <ele>1865</ele>
        <time>2021-02-25T15:18:59.149Z</time>
      </trkpt>
      <trkpt lat="45.43719" lon="6.79535">
        <ele>1859</ele>
        <time>2021-02-25T15:20:02.163Z</time>
      </trkpt>
      <trkpt lat="45.43732" lon="6.7949">
        <ele>1856</ele>
        <time>2021-02-25T15:20:52.517Z</time>
      </trkpt>
      <trkpt lat="45.43737" lon="6.79486">
        <ele>1856</ele>
        <time>2021-02-25T15:21:01.066Z</time>
      </trkpt>
      <trkpt lat="45.43744" lon="6.79466">
        <ele>1854</ele>
        <time>2021-02-25T15:21:23.712Z</time>
      </trkpt>
      <trkpt lat="45.43769" lon="6.79438">
        <ele>1850</ele>
        <time>2021-02-25T15:22:18.852Z</time>
      </trkpt>
      <trkpt lat="45.43761" lon="6.79439">
        <ele>1848</ele>
        <time>2021-02-25T15:22:34.782Z</time>
      </trkpt>
      <trkpt lat="45.43766" lon="6.79433">
        <ele>1847</ele>
        <time>2021-02-25T15:22:47.816Z</time>
      </trkpt>
      <trkpt lat="45.43763" lon="6.79413">
        <ele>1843</ele>
        <time>2021-02-25T15:23:19.617Z</time>
      </trkpt>
      <trkpt lat="45.43791" lon="6.79377">
        <ele>1832</ele>
        <time>2021-02-25T15:24:53.037Z</time>
      </trkpt>
      <trkpt lat="45.4382" lon="6.79355">
        <ele>1821</ele>
        <time>2021-02-25T15:26:11.770Z</time>
      </trkpt>
      <trkpt lat="45.43833" lon="6.79316">
        <ele>1813</ele>
        <time>2021-02-25T15:27:15.960Z</time>
      </trkpt>
      <trkpt lat="45.43846" lon="6.79308">
        <ele>1810</ele>
        <time>2021-02-25T15:27:42.891Z</time>
      </trkpt>
      <trkpt lat="45.43853" lon="6.79295">
        <ele>1807</ele>
        <time>2021-02-25T15:28:05.578Z</time>
      </trkpt>
      <trkpt lat="45.43842" lon="6.79291">
        <ele>1805</ele>
        <time>2021-02-25T15:28:27.423Z</time>
      </trkpt>
      <trkpt lat="45.4387" lon="6.79248">
        <ele>1796</ele>
        <time>2021-02-25T15:29:49.996Z</time>
      </trkpt>
      <trkpt lat="45.43891" lon="6.79243">
        <ele>1790</ele>
        <time>2021-02-25T15:30:33.104Z</time>
      </trkpt>
      <trkpt lat="45.43914" lon="6.79214">
        <ele>1783</ele>
        <time>2021-02-25T15:31:35.975Z</time>
      </trkpt>
      <trkpt lat="45.43929" lon="6.79223">
        <ele>1779</ele>
        <time>2021-02-25T15:32:09.171Z</time>
      </trkpt>
      <trkpt lat="45.43943" lon="6.79207">
        <ele>1774</ele>
        <time>2021-02-25T15:32:45.767Z</time>
      </trkpt>
      <trkpt lat="45.43938" lon="6.79204">
        <ele>1773</ele>
        <time>2021-02-25T15:32:56.833Z</time>
      </trkpt>
      <trkpt lat="45.43939" lon="6.79192">
        <ele>1771</ele>
        <time>2021-02-25T15:33:12.933Z</time>
      </trkpt>
      <trkpt lat="45.4393" lon="6.79197">
        <ele>1769</ele>
        <time>2021-02-25T15:33:33.497Z</time>
      </trkpt>
      <trkpt lat="45.43936" lon="6.79173">
        <ele>1765</ele>
        <time>2021-02-25T15:34:09.243Z</time>
      </trkpt>
      <trkpt lat="45.43937" lon="6.79141">
        <ele>1759</ele>
        <time>2021-02-25T15:35:01.421Z</time>
      </trkpt>
      <trkpt lat="45.43911" lon="6.79178">
        <ele>1748</ele>
        <time>2021-02-25T15:36:44.147Z</time>
      </trkpt>
      <trkpt lat="45.43905" lon="6.79176">
        <ele>1746</ele>
        <time>2021-02-25T15:37:01.836Z</time>
      </trkpt>
      <trkpt lat="45.43908" lon="6.79161">
        <ele>1742</ele>
        <time>2021-02-25T15:37:31.918Z</time>
      </trkpt>
      <trkpt lat="45.43896" lon="6.79119">
        <ele>1729</ele>
        <time>2021-02-25T15:39:12.837Z</time>
      </trkpt>
      <trkpt lat="45.43875" lon="6.79077">
        <ele>1715</ele>
        <time>2021-02-25T15:40:25.184Z</time>
      </trkpt>
      <trkpt lat="45.43876" lon="6.79063">
        <ele>1712</ele>
        <time>2021-02-25T15:40:45.247Z</time>
      </trkpt>
      <trkpt lat="45.43866" lon="6.79062">
        <ele>1710</ele>
        <time>2021-02-25T15:41:05.078Z</time>
      </trkpt>
      <trkpt lat="45.43898" lon="6.78999">
        <ele>1703</ele>
        <time>2021-02-25T15:42:26.629Z</time>
      </trkpt>
      <trkpt lat="45.43954" lon="6.78912">
        <ele>1695</ele>
        <time>2021-02-25T15:44:23.060Z</time>
      </trkpt>
      <trkpt lat="45.44027" lon="6.78854">
        <ele>1692</ele>
        <time>2021-02-25T15:46:17.725Z</time>
      </trkpt>
      <trkpt lat="45.44153" lon="6.7879">
        <ele>1684</ele>
        <time>2021-02-25T15:49:35.869Z</time>
      </trkpt>
      <trkpt lat="45.44223" lon="6.78709">
        <ele>1667</ele>
        <time>2021-02-25T15:51:58.748Z</time>
      </trkpt>
      <trkpt lat="45.44269" lon="6.78641">
        <ele>1660</ele>
        <time>2021-02-25T15:53:36.413Z</time>
      </trkpt>
      <trkpt lat="45.44314" lon="6.78598">
        <ele>1655</ele>
        <time>2021-02-25T15:54:51.549Z</time>
      </trkpt>
      <trkpt lat="45.44376" lon="6.78562">
        <ele>1652</ele>
        <time>2021-02-25T15:56:24.324Z</time>
      </trkpt>
      <trkpt lat="45.44443" lon="6.78539">
        <ele>1649</ele>
        <time>2021-02-25T15:57:59.252Z</time>
      </trkpt>
      <trkpt lat="45.4448" lon="6.78519">
        <ele>1647</ele>
        <time>2021-02-25T15:58:55.409Z</time>
      </trkpt>
      <trkpt lat="45.44525" lon="6.7852">
        <ele>1643</ele>
        <time>2021-02-25T16:00:05.434Z</time>
      </trkpt>
      <trkpt lat="45.44618" lon="6.78478">
        <ele>1626</ele>
        <time>2021-02-25T16:03:18.608Z</time>
      </trkpt>
      <trkpt lat="45.44625" lon="6.7842">
        <ele>1611</ele>
        <time>2021-02-25T16:04:48.919Z</time>
      </trkpt>
      <trkpt lat="45.44623" lon="6.78404">
        <ele>1607</ele>
        <time>2021-02-25T16:05:15.014Z</time>
      </trkpt>
      <trkpt lat="45.44658" lon="6.78353">
        <ele>1598</ele>
        <time>2021-02-25T16:06:30.264Z</time>
      </trkpt>
      <trkpt lat="45.44684" lon="6.78341">
        <ele>1598</ele>
        <time>2021-02-25T16:07:07.822Z</time>
      </trkpt>
      <trkpt lat="45.44697" lon="6.78326">
        <ele>1598</ele>
        <time>2021-02-25T16:07:30.479Z</time>
      </trkpt>
      <trkpt lat="45.44752" lon="6.78282">
        <ele>1592</ele>
        <time>2021-02-25T16:09:09.414Z</time>
      </trkpt>
      <trkpt lat="45.44756" lon="6.78262">
        <ele>1588</ele>
        <time>2021-02-25T16:09:32.762Z</time>
      </trkpt>
      <trkpt lat="45.44766" lon="6.78255">
        <ele>1585</ele>
        <time>2021-02-25T16:09:54.583Z</time>
      </trkpt>
      <trkpt lat="45.4477" lon="6.78234">
        <ele>1581</ele>
        <time>2021-02-25T16:10:24.771Z</time>
      </trkpt>
      <trkpt lat="45.44758" lon="6.78172">
        <ele>1572</ele>
        <time>2021-02-25T16:11:27.227Z</time>
      </trkpt>
      <trkpt lat="45.44847" lon="6.78077">
        <ele>1571</ele>
        <time>2021-02-25T16:14:01.100Z</time>
      </trkpt>
      <trkpt lat="45.44859" lon="6.78051">
        <ele>1570</ele>
        <time>2021-02-25T16:14:31.481Z</time>
      </trkpt>
      <trkpt lat="45.44862" lon="6.78033">
        <ele>1569</ele>
        <time>2021-02-25T16:14:48.838Z</time>
      </trkpt>
      <trkpt lat="45.44857" lon="6.77988">
        <ele>1568</ele>
        <time>2021-02-25T16:15:33.720Z</time>
      </trkpt>
    </trkseg>
  </trk>
</gpx>